Time;durP1;ratioP1;P1;durP2;ratioP2;P2;SDS_P1;SDS_P2;PMS_P1;PMS_P2;Temp;Humidity;BMP_temperature;BMP_pressure;BME280_temperature;BME280_humidity;BME280_pressure;Samples;Min_cycle;Max_cycle;Signal;HPM_P1;HPM_P2
2023/10/24 00:00:31;;;;;;;10.13;3.47;;;;;;;;;;4992457;28;20030;-42
2023/10/24 00:02:56;;;;;;;9.70;2.78;;;;;;;;;;4987677;28;20042;-43
2023/10/24 00:05:21;;;;;;;16.08;4.57;;;;;;;;;;4988631;28;20030;-41
2023/10/24 00:07:49;;;;;;;8.82;3.33;;;;;;;;;;4990202;28;20042;-42
2023/10/24 00:10:15;;;;;;;13.30;3.25;;;;;;;;;;5004507;28;20036;-47
2023/10/24 00:12:41;;;;;;;9.90;3.85;;;;;;;;;;4997315;28;20039;-43
2023/10/24 00:15:07;;;;;;;11.70;3.15;;;;;;;;;;5010157;28;20152;-44
2023/10/24 00:17:32;;;;;;;9.95;3.50;;;;;;;;;;4997454;28;20088;-44
2023/10/24 00:19:57;;;;;;;9.95;2.97;;;;;;;;;;4997482;28;20030;-47
2023/10/24 00:22:23;;;;;;;9.85;1.73;;;;;;;;;;4997882;28;20384;-45
2023/10/24 00:24:48;;;;;;;11.07;2.35;;;;;;;;;;4995226;28;20050;-44
2023/10/24 00:27:14;;;;;;;14.77;3.53;;;;;;;;;;4995293;28;20069;-46
2023/10/24 00:29:39;;;;;;;9.45;2.30;;;;;;;;;;4994501;28;20520;-45
2023/10/24 00:32:05;;;;;;;12.15;2.78;;;;;;;;;;4991936;28;20038;-45
2023/10/24 00:34:30;;;;;;;10.32;3.03;;;;;;;;;;4996646;28;20027;-48
2023/10/24 00:36:56;;;;;;;12.15;3.55;;;;;;;;;;4996163;28;20042;-44
2023/10/24 00:39:22;;;;;;;16.38;4.82;;;;;;;;;;5003992;28;20069;-44
2023/10/24 00:41:47;;;;;;;10.23;4.35;;;;;;;;;;4992087;28;20501;-43
2023/10/24 00:44:13;;;;;;;9.13;1.80;;;;;;;;;;4996212;28;20427;-44
2023/10/24 00:46:39;;;;;;;10.48;1.85;;;;;;;;;;4995493;28;22120;-43
2023/10/24 00:49:06;;;;;;;8.80;3.05;;;;;;;;;;4995596;28;20022;-41
2023/10/24 00:51:31;;;;;;;9.77;4.53;;;;;;;;;;4998787;28;20031;-47
2023/10/24 00:53:58;;;;;;;13.18;3.88;;;;;;;;;;4987271;28;20480;-45
2023/10/24 00:56:24;;;;;;;17.10;3.30;;;;;;;;;;4988022;28;20058;-44
2023/10/24 00:58:51;;;;;;;14.05;4.20;;;;;;;;;;4994673;28;20477;-42
2023/10/24 01:01:16;;;;;;;16.95;3.22;;;;;;;;;;4996961;28;20030;-43
2023/10/24 01:03:46;;;;;;;12.63;3.15;;;;;;;;;;4993898;28;20088;-46
2023/10/24 01:06:12;;;;;;;12.30;2.85;;;;;;;;;;4997999;28;20093;-45
2023/10/24 01:08:37;;;;;;;13.02;2.95;;;;;;;;;;4995332;28;20434;-47
2023/10/24 01:11:03;;;;;;;12.73;2.40;;;;;;;;;;4997912;28;20353;-46
2023/10/24 01:13:29;;;;;;;15.60;3.97;;;;;;;;;;4993397;28;20054;-46
2023/10/24 01:15:55;;;;;;;13.13;3.30;;;;;;;;;;4987176;28;20052;-46
2023/10/24 01:18:21;;;;;;;19.17;4.53;;;;;;;;;;4990336;28;20030;-42
2023/10/24 01:20:46;;;;;;;17.50;3.50;;;;;;;;;;4996486;28;20027;-45
2023/10/24 01:23:11;;;;;;;17.25;4.75;;;;;;;;;;4997009;28;20045;-45
2023/10/24 01:25:39;;;;;;;15.27;5.60;;;;;;;;;;5000910;28;20542;-42
2023/10/24 01:28:05;;;;;;;15.77;3.95;;;;;;;;;;4991800;28;20049;-43
2023/10/24 01:30:31;;;;;;;16.75;3.80;;;;;;;;;;4993377;28;20034;-44
2023/10/24 01:32:57;;;;;;;22.30;3.70;;;;;;;;;;4990305;28;20626;-45
2023/10/24 01:35:22;;;;;;;18.48;2.83;;;;;;;;;;4997009;28;20362;-43
2023/10/24 01:37:47;;;;;;;16.42;2.95;;;;;;;;;;4999707;28;20396;-44
2023/10/24 01:40:13;;;;;;;21.40;3.78;;;;;;;;;;4991056;28;20049;-42
2023/10/24 01:42:38;;;;;;;17.80;4.30;;;;;;;;;;4996949;28;20053;-42
2023/10/24 01:45:05;;;;;;;16.88;4.03;;;;;;;;;;4991452;28;20061;-42
2023/10/24 01:47:30;;;;;;;15.60;2.83;;;;;;;;;;4991547;28;20041;-43
2023/10/24 01:49:56;;;;;;;16.10;3.45;;;;;;;;;;4989913;28;20030;-43
2023/10/24 01:52:21;;;;;;;17.13;2.78;;;;;;;;;;4992633;28;20444;-42
2023/10/24 01:54:47;;;;;;;19.20;6.13;;;;;;;;;;4991171;28;20034;-43
2023/10/24 01:57:12;;;;;;;13.88;3.58;;;;;;;;;;4982101;28;20034;-46
2023/10/24 01:59:38;;;;;;;16.42;4.00;;;;;;;;;;4994615;28;20038;-42
2023/10/24 02:02:03;;;;;;;21.92;3.83;;;;;;;;;;4992739;28;20054;-43
2023/10/24 02:04:29;;;;;;;19.00;3.75;;;;;;;;;;5016553;28;20548;-43
2023/10/24 02:06:54;;;;;;;17.33;5.63;;;;;;;;;;4993412;28;20050;-45
2023/10/24 02:09:20;;;;;;;16.30;3.70;;;;;;;;;;4990824;28;20037;-44
2023/10/24 02:11:45;;;;;;;14.82;4.47;;;;;;;;;;4993054;28;20038;-46
2023/10/24 02:14:11;;;;;;;17.73;4.32;;;;;;;;;;4995350;28;20026;-42
2023/10/24 02:16:36;;;;;;;10.02;3.10;;;;;;;;;;4980503;28;20030;-45
2023/10/24 02:19:01;;;;;;;13.57;3.08;;;;;;;;;;4999457;28;20030;-41
2023/10/24 02:21:27;;;;;;;15.48;4.97;;;;;;;;;;4993453;28;20034;-44
2023/10/24 02:23:52;;;;;;;12.57;3.70;;;;;;;;;;4994443;28;20507;-44
2023/10/24 02:26:18;;;;;;;15.60;4.53;;;;;;;;;;4996312;28;20022;-42
2023/10/24 02:28:43;;;;;;;12.25;3.00;;;;;;;;;;4982959;28;20082;-42
2023/10/24 02:31:10;;;;;;;8.38;3.22;;;;;;;;;;4993552;28;20034;-44
2023/10/24 02:33:35;;;;;;;15.07;3.75;;;;;;;;;;4996935;28;20058;-44
2023/10/24 02:36:11;;;;;;;18.10;2.60;;;;;;;;;;4992460;28;20388;-44
2023/10/24 02:38:37;;;;;;;18.27;4.45;;;;;;;;;;4992436;28;20510;-42
2023/10/24 02:41:05;;;;;;;16.00;4.43;;;;;;;;;;4994747;28;20046;-42
2023/10/24 02:43:31;;;;;;;;;;;;;;;;;;4991990;28;20046;-42
2023/10/24 02:45:58;;;;;;;10.25;3.38;;;;;;;;;;4995923;28;19918;-45
2023/10/24 02:48:23;;;;;;;11.27;4.53;;;;;;;;;;4990877;28;20093;-44
2023/10/24 02:50:54;;;;;;;15.07;3.45;;;;;;;;;;4987342;28;20022;-45
2023/10/24 02:53:20;;;;;;;14.18;3.45;;;;;;;;;;4994913;28;20034;-41
2023/10/24 02:55:45;;;;;;;16.90;3.30;;;;;;;;;;4982122;28;20027;-44
2023/10/24 02:58:11;;;;;;;16.60;3.50;;;;;;;;;;4987560;28;20034;-43
2023/10/24 03:00:36;;;;;;;16.33;4.97;;;;;;;;;;4996169;28;20027;-43
2023/10/24 03:03:02;;;;;;;17.45;4.28;;;;;;;;;;4982297;28;20093;-44
2023/10/24 03:05:28;;;;;;;14.05;3.85;;;;;;;;;;4995079;28;20084;-44
2023/10/24 03:07:54;;;;;;;9.63;2.95;;;;;;;;;;4996309;28;20101;-42
2023/10/24 03:10:19;;;;;;;10.45;3.10;;;;;;;;;;4989895;28;20014;-44
2023/10/24 03:12:45;;;;;;;17.35;2.97;;;;;;;;;;4989633;28;20030;-44
2023/10/24 03:15:10;;;;;;;10.70;3.67;;;;;;;;;;4987626;28;20157;-42
2023/10/24 03:17:36;;;;;;;12.73;2.05;;;;;;;;;;4985302;28;20409;-42
2023/10/24 03:20:01;;;;;;;11.90;5.15;;;;;;;;;;4991744;28;20477;-43
2023/10/24 03:22:27;;;;;;;12.55;2.28;;;;;;;;;;4994237;28;20400;-45
2023/10/24 03:24:52;;;;;;;18.10;3.15;;;;;;;;;;4996211;28;20030;-45
2023/10/24 03:27:17;;;;;;;11.23;2.67;;;;;;;;;;4991015;28;20094;-42
2023/10/24 03:29:43;;;;;;;14.65;3.70;;;;;;;;;;4991590;28;20038;-43
2023/10/24 03:32:10;;;;;;;10.50;3.22;;;;;;;;;;4997014;28;20073;-45
2023/10/24 03:34:36;;;;;;;11.43;3.10;;;;;;;;;;4995898;28;20085;-43
2023/10/24 03:37:02;;;;;;;10.27;4.10;;;;;;;;;;4995825;28;20038;-45
2023/10/24 03:39:28;;;;;;;10.25;2.85;;;;;;;;;;4995843;28;20046;-43
2023/10/24 03:41:54;;;;;;;8.68;3.33;;;;;;;;;;4998737;28;20046;-47
2023/10/24 03:44:19;;;;;;;9.45;5.10;;;;;;;;;;4994280;28;20023;-44
2023/10/24 03:46:44;;;;;;;6.18;2.33;;;;;;;;;;4997543;28;20034;-45
2023/10/24 03:49:10;;;;;;;13.77;2.03;;;;;;;;;;4996267;28;20076;-47
2023/10/24 03:51:35;;;;;;;10.90;4.28;;;;;;;;;;4998798;28;20053;-44
2023/10/24 03:54:01;;;;;;;13.38;2.83;;;;;;;;;;5008913;28;20038;-47
2023/10/24 03:56:26;;;;;;;5.65;3.17;;;;;;;;;;5010805;28;20030;-42
2023/10/24 03:58:52;;;;;;;7.88;1.33;;;;;;;;;;4995866;28;20426;-44
2023/10/24 04:01:17;;;;;;;9.10;2.58;;;;;;;;;;4988152;28;20042;-46
2023/10/24 04:03:43;;;;;;;11.55;3.55;;;;;;;;;;4993624;28;20038;-41
2023/10/24 04:06:10;;;;;;;15.70;4.47;;;;;;;;;;5002503;28;20113;-43
2023/10/24 04:08:36;;;;;;;11.27;3.25;;;;;;;;;;5001330;28;20042;-43
2023/10/24 04:11:03;;;;;;;11.50;2.63;;;;;;;;;;4998621;28;20490;-43
2023/10/24 04:13:28;;;;;;;9.35;2.88;;;;;;;;;;4999276;28;20026;-46
2023/10/24 04:16:00;;;;;;;11.40;1.27;;;;;;;;;;5005812;28;20416;-43
2023/10/24 04:18:27;;;;;;;7.97;2.90;;;;;;;;;;4992357;28;20160;-41
2023/10/24 04:20:52;;;;;;;8.00;3.72;;;;;;;;;;4997142;28;20050;-42
2023/10/24 04:23:18;;;;;;;9.13;1.85;;;;;;;;;;4996636;28;20042;-45
2023/10/24 04:25:43;;;;;;;12.40;2.90;;;;;;;;;;5029495;28;20022;-42
2023/10/24 04:28:08;;;;;;;11.90;2.33;;;;;;;;;;4996964;28;20037;-42
2023/10/24 04:30:34;;;;;;;12.35;2.28;;;;;;;;;;4986681;28;20022;-47
2023/10/24 04:32:59;;;;;;;8.23;3.05;;;;;;;;;;4986222;28;20055;-45
2023/10/24 04:35:25;;;;;;;8.85;2.80;;;;;;;;;;4985930;28;20034;-42
2023/10/24 04:37:50;;;;;;;8.82;1.77;;;;;;;;;;4996459;28;20034;-43
2023/10/24 04:40:15;;;;;;;4.18;1.63;;;;;;;;;;4994341;28;20058;-44
2023/10/24 04:42:41;;;;;;;7.03;1.00;;;;;;;;;;4995762;28;20408;-42
2023/10/24 04:45:07;;;;;;;7.75;2.22;;;;;;;;;;4983466;28;20069;-45
2023/10/24 04:47:33;;;;;;;7.00;2.13;;;;;;;;;;4990172;28;20035;-49
2023/10/24 04:49:58;;;;;;;10.75;2.00;;;;;;;;;;4989205;28;20037;-42
2023/10/24 04:52:24;;;;;;;5.13;1.20;;;;;;;;;;5020839;28;20885;-44
2023/10/24 04:54:49;;;;;;;9.18;5.03;;;;;;;;;;4990123;28;20030;-44
2023/10/24 04:57:14;;;;;;;11.55;3.92;;;;;;;;;;4979619;28;20038;-46
2023/10/24 04:59:40;;;;;;;10.23;2.42;;;;;;;;;;4997123;28;20038;-43
2023/10/24 05:02:05;;;;;;;10.23;2.47;;;;;;;;;;4990595;28;20031;-44
2023/10/24 05:04:31;;;;;;;6.15;1.90;;;;;;;;;;4990029;28;20034;-43
2023/10/24 05:06:56;;;;;;;9.65;2.67;;;;;;;;;;4995954;28;20042;-47
2023/10/24 05:09:22;;;;;;;8.48;1.90;;;;;;;;;;5003268;28;20081;-40
2023/10/24 05:11:47;;;;;;;7.60;2.83;;;;;;;;;;4990657;28;20038;-45
2023/10/24 05:14:13;;;;;;;11.57;3.47;;;;;;;;;;4987789;28;20026;-45
2023/10/24 05:16:39;;;;;;;11.10;2.47;;;;;;;;;;5007629;28;20046;-43
2023/10/24 05:19:05;;;;;;;13.00;2.83;;;;;;;;;;4991660;28;20033;-43
2023/10/24 05:21:32;;;;;;;9.38;3.42;;;;;;;;;;4983809;28;20102;-42
2023/10/24 05:23:58;;;;;;;11.75;2.28;;;;;;;;;;4987284;28;20129;-42
2023/10/24 05:26:24;;;;;;;7.60;1.52;;;;;;;;;;4972118;28;20548;-47
2023/10/24 05:28:49;;;;;;;13.77;2.70;;;;;;;;;;4981680;28;20130;-43
2023/10/24 05:31:15;;;;;;;9.00;1.45;;;;;;;;;;4981813;28;20019;-45
2023/10/24 05:33:40;;;;;;;6.90;2.15;;;;;;;;;;4984196;28;20049;-42
2023/10/24 05:36:06;;;;;;;4.65;2.47;;;;;;;;;;4990142;28;20089;-42
2023/10/24 05:38:32;;;;;;;6.43;2.38;;;;;;;;;;4988513;28;20034;-44
2023/10/24 05:40:59;;;;;;;7.13;2.70;;;;;;;;;;4990291;28;20056;-45
2023/10/24 05:43:25;;;;;;;6.80;1.75;;;;;;;;;;4991661;28;20531;-45
2023/10/24 05:45:50;;;;;;;5.40;0.90;;;;;;;;;;4988182;28;20456;-41
2023/10/24 05:48:16;;;;;;;5.80;0.80;;;;;;;;;;4985884;28;20039;-42
2023/10/24 05:50:43;;;;;;;9.20;3.33;;;;;;;;;;4999010;28;20101;-43
2023/10/24 05:53:09;;;;;;;5.38;1.15;;;;;;;;;;4999125;28;20046;-45
2023/10/24 05:55:34;;;;;;;9.18;3.05;;;;;;;;;;4978489;28;20057;-42
2023/10/24 05:58:00;;;;;;;8.38;1.85;;;;;;;;;;4992514;28;20047;-45
2023/10/24 06:00:25;;;;;;;7.32;1.63;;;;;;;;;;4993926;28;20030;-46
2023/10/24 06:02:51;;;;;;;5.50;1.63;;;;;;;;;;4981429;28;20575;-43
2023/10/24 06:05:16;;;;;;;5.38;1.52;;;;;;;;;;4997336;28;20037;-43
2023/10/24 06:07:42;;;;;;;6.63;1.80;;;;;;;;;;4992972;28;20042;-45
2023/10/24 06:10:08;;;;;;;5.45;1.33;;;;;;;;;;4997083;28;20034;-46
2023/10/24 06:12:33;;;;;;;6.97;2.55;;;;;;;;;;4988568;28;20046;-45
2023/10/24 06:14:58;;;;;;;4.85;1.75;;;;;;;;;;4994235;28;20045;-43
2023/10/24 06:17:24;;;;;;;8.52;2.17;;;;;;;;;;4995173;28;20038;-41
2023/10/24 06:19:51;;;;;;;5.63;2.15;;;;;;;;;;4993345;28;20030;-43
2023/10/24 06:22:17;;;;;;;6.35;2.03;;;;;;;;;;4996681;28;20566;-44
2023/10/24 06:24:42;;;;;;;3.97;1.58;;;;;;;;;;4997330;28;20030;-45
2023/10/24 06:27:09;;;;;;;11.07;1.98;;;;;;;;;;4990128;28;20065;-42
2023/10/24 06:29:35;;;;;;;7.85;3.35;;;;;;;;;;4994822;28;20025;-45
2023/10/24 06:32:00;;;;;;;7.13;1.70;;;;;;;;;;4994962;28;20034;-45
2023/10/24 06:34:26;;;;;;;11.93;2.65;;;;;;;;;;5003217;28;20030;-44
2023/10/24 06:36:51;;;;;;;10.55;2.08;;;;;;;;;;5004132;28;20068;-47
2023/10/24 06:39:17;;;;;;;9.15;2.95;;;;;;;;;;4995145;28;20139;-42
2023/10/24 06:41:42;;;;;;;5.95;1.45;;;;;;;;;;4995128;28;20416;-42
2023/10/24 06:44:08;;;;;;;5.85;1.75;;;;;;;;;;4994577;28;20038;-46
2023/10/24 06:46:33;;;;;;;6.88;1.00;;;;;;;;;;4993219;28;20465;-42
2023/10/24 06:48:58;;;;;;;9.35;1.95;;;;;;;;;;4987061;28;20042;-44
2023/10/24 06:51:24;;;;;;;6.95;3.45;;;;;;;;;;4997998;28;20057;-43
2023/10/24 06:53:49;;;;;;;9.85;3.45;;;;;;;;;;4988102;28;20034;-43
2023/10/24 06:56:15;;;;;;;8.07;2.80;;;;;;;;;;4991447;28;20034;-43
2023/10/24 06:58:40;;;;;;;7.90;1.83;;;;;;;;;;4982075;28;20046;-44
2023/10/24 07:01:06;;;;;;;5.78;0.77;;;;;;;;;;4987137;28;20070;-42
2023/10/24 07:03:31;;;;;;;9.43;2.75;;;;;;;;;;4994296;28;20050;-47
2023/10/24 07:05:57;;;;;;;3.10;2.33;;;;;;;;;;4990788;28;20045;-44
2023/10/24 07:08:23;;;;;;;4.45;1.75;;;;;;;;;;4987949;28;20039;-41
2023/10/24 07:10:49;;;;;;;6.90;2.33;;;;;;;;;;4994199;28;20045;-44
2023/10/24 07:13:15;;;;;;;5.30;2.35;;;;;;;;;;4995757;28;20065;-42
2023/10/24 07:15:40;;;;;;;8.13;1.80;;;;;;;;;;5000142;28;20056;-45
2023/10/24 07:18:06;;;;;;;7.72;2.03;;;;;;;;;;4994099;28;20042;-42
2023/10/24 07:20:38;;;;;;;7.13;1.63;;;;;;;;;;4997835;28;20030;-43
2023/10/24 07:23:04;;;;;;;6.53;0.95;;;;;;;;;;4999092;28;20417;-46
2023/10/24 07:25:30;;;;;;;4.70;2.22;;;;;;;;;;4999416;28;20034;-46
2023/10/24 07:27:57;;;;;;;5.07;3.00;;;;;;;;;;5003306;28;20042;-46
2023/10/24 07:30:23;;;;;;;5.18;1.15;;;;;;;;;;4991183;28;20054;-44
2023/10/24 07:32:49;;;;;;;3.65;1.98;;;;;;;;;;4998656;28;20034;-44
2023/10/24 07:35:14;;;;;;;3.53;1.63;;;;;;;;;;4998534;28;20093;-45
2023/10/24 07:37:40;;;;;;;2.97;0.90;;;;;;;;;;4999472;28;20516;-44
2023/10/24 07:40:06;;;;;;;4.15;1.95;;;;;;;;;;4980941;28;20083;-41
2023/10/24 07:42:32;;;;;;;3.03;1.00;;;;;;;;;;4995965;28;20069;-41
2023/10/24 07:44:58;;;;;;;7.25;3.22;;;;;;;;;;4997135;28;20038;-41
2023/10/24 07:47:26;;;;;;;6.50;1.58;;;;;;;;;;4982757;28;20093;-48
2023/10/24 07:49:51;;;;;;;3.60;1.17;;;;;;;;;;4994830;28;20173;-45
2023/10/24 07:52:16;;;;;;;3.22;1.75;;;;;;;;;;4996055;28;20061;-42
2023/10/24 07:54:42;;;;;;;5.25;1.27;;;;;;;;;;5000994;28;20512;-43
2023/10/24 07:57:08;;;;;;;3.25;0.75;;;;;;;;;;4997812;28;20314;-43
2023/10/24 07:59:34;;;;;;;4.25;1.77;;;;;;;;;;4998056;28;20444;-42
2023/10/24 08:01:59;;;;;;;9.50;1.13;;;;;;;;;;4986246;28;20074;-44
2023/10/24 08:04:26;;;;;;;4.43;1.58;;;;;;;;;;4994093;28;20041;-44
2023/10/24 08:06:52;;;;;;;5.13;2.88;;;;;;;;;;4997513;28;20081;-41
2023/10/24 08:09:17;;;;;;;4.50;1.30;;;;;;;;;;4997188;28;20038;-44
2023/10/24 08:11:43;;;;;;;4.97;0.73;;;;;;;;;;4990893;28;20040;-44
2023/10/24 08:14:09;;;;;;;7.63;1.33;;;;;;;;;;5004470;28;20036;-42
2023/10/24 08:16:35;;;;;;;5.05;1.20;;;;;;;;;;4998763;28;20042;-44
2023/10/24 08:19:01;;;;;;;4.78;0.65;;;;;;;;;;4992074;28;20456;-44
2023/10/24 08:21:27;;;;;;;6.50;1.40;;;;;;;;;;4995417;28;20108;-45
2023/10/24 08:23:53;;;;;;;4.47;1.75;;;;;;;;;;4995506;28;20062;-45
2023/10/24 08:26:19;;;;;;;3.55;1.20;;;;;;;;;;4996020;28;20026;-44
2023/10/24 08:28:45;;;;;;;6.07;1.23;;;;;;;;;;4993757;28;20027;-43
2023/10/24 08:31:11;;;;;;;3.80;1.30;;;;;;;;;;4994994;28;20038;-43
2023/10/24 08:33:36;;;;;;;4.25;0.75;;;;;;;;;;5002450;28;20042;-45
2023/10/24 08:36:01;;;;;;;5.45;1.02;;;;;;;;;;4977060;28;20023;-46
2023/10/24 08:38:27;;;;;;;3.28;0.82;;;;;;;;;;4976430;28;20390;-46
2023/10/24 08:40:52;;;;;;;6.75;1.23;;;;;;;;;;4989438;28;20046;-41
2023/10/24 08:43:20;;;;;;;5.88;2.03;;;;;;;;;;4992700;28;20070;-42
2023/10/24 08:45:48;;;;;;;8.00;1.38;;;;;;;;;;5000574;28;20102;-48
2023/10/24 08:48:15;;;;;;;5.95;1.58;;;;;;;;;;4997034;28;20056;-42
2023/10/24 08:50:45;;;;;;;4.78;0.90;;;;;;;;;;4995644;28;20408;-43
2023/10/24 08:53:13;;;;;;;5.30;1.85;;;;;;;;;;4985547;28;20596;-44
2023/10/24 08:55:46;;;;;;;3.08;1.52;;;;;;;;;;4991206;28;20034;-43
2023/10/24 08:58:15;;;;;;;6.40;1.23;;;;;;;;;;4993453;28;20054;-42
2023/10/24 09:00:41;;;;;;;3.60;1.00;;;;;;;;;;4998149;28;20081;-43
2023/10/24 09:03:06;;;;;;;5.28;2.50;;;;;;;;;;4994017;28;20038;-42
2023/10/24 09:05:32;;;;;;;3.58;1.50;;;;;;;;;;4989066;28;20049;-48
2023/10/24 09:07:59;;;;;;;5.40;1.48;;;;;;;;;;4998776;28;20146;-44
2023/10/24 09:10:24;;;;;;;5.90;1.70;;;;;;;;;;4991728;28;21150;-47
2023/10/24 09:12:54;;;;;;;5.13;1.00;;;;;;;;;;4988793;28;20062;-43
2023/10/24 09:15:19;;;;;;;4.78;1.13;;;;;;;;;;4996642;28;20057;-45
2023/10/24 09:17:46;;;;;;;5.10;1.75;;;;;;;;;;4997095;28;20038;-44
2023/10/24 09:20:11;;;;;;;4.80;1.38;;;;;;;;;;4989136;28;20467;-46
2023/10/24 09:22:41;;;;;;;2.45;0.90;;;;;;;;;;4996235;28;20049;-45
2023/10/24 09:25:08;;;;;;;1.95;1.48;;;;;;;;;;4995971;28;20030;-47
2023/10/24 09:27:33;;;;;;;3.50;0.70;;;;;;;;;;4992539;28;20102;-42
2023/10/24 09:30:13;;;;;;;2.78;1.27;;;;;;;;;;4994508;28;20042;-44
2023/10/24 09:32:40;;;;;;;5.90;2.72;;;;;;;;;;4991362;28;20034;-45
2023/10/24 09:35:06;;;;;;;3.72;1.30;;;;;;;;;;4997659;28;20040;-43
2023/10/24 09:37:32;;;;;;;2.85;0.57;;;;;;;;;;5003800;28;20499;-45
2023/10/24 09:40:01;;;;;;;6.63;2.08;;;;;;;;;;4997085;28;20157;-43
2023/10/24 09:42:28;;;;;;;3.42;0.98;;;;;;;;;;4994043;28;20141;-46
2023/10/24 09:44:56;;;;;;;5.15;1.65;;;;;;;;;;4986214;28;20027;-43
2023/10/24 09:47:23;;;;;;;8.45;1.95;;;;;;;;;;4991624;28;20049;-45
2023/10/24 09:49:53;;;;;;;4.38;1.75;;;;;;;;;;4979417;28;20030;-46
2023/10/24 09:52:20;;;;;;;3.92;1.77;;;;;;;;;;4988846;28;20042;-44
2023/10/24 09:54:50;;;;;;;4.65;1.88;;;;;;;;;;5005292;28;20030;-47
2023/10/24 09:57:22;;;;;;;6.50;1.70;;;;;;;;;;5001688;28;20049;-47
2023/10/24 09:59:54;;;;;;;3.20;1.90;;;;;;;;;;4995348;28;20034;-45
2023/10/24 10:02:22;;;;;;;9.10;1.60;;;;;;;;;;4983212;28;20046;-42
2023/10/24 10:04:48;;;;;;;5.15;2.20;;;;;;;;;;4984419;28;20037;-44
2023/10/24 10:07:15;;;;;;;4.78;2.95;;;;;;;;;;4999526;28;20065;-44
2023/10/24 10:09:46;;;;;;;1.73;1.63;;;;;;;;;;4996261;28;20038;-45
2023/10/24 10:12:12;;;;;;;2.33;1.00;;;;;;;;;;4989155;28;20045;-41
2023/10/24 10:15:01;;;;;;;7.28;1.98;;;;;;;;;;4996742;28;20522;-47
2023/10/24 10:17:46;;;;;;;3.85;0.77;;;;;;;;;;4992409;28;20088;-47
2023/10/24 10:20:30;;;;;;;2.25;1.85;;;;;;;;;;5008479;28;20041;-46
2023/10/24 10:23:07;;;;;;;4.95;1.23;;;;;;;;;;4993301;28;20465;-44
2023/10/24 10:26:11;;;;;;;5.55;1.52;;;;;;;;;;4992995;28;20030;-44
2023/10/24 10:29:01;;;;;;;4.15;1.65;;;;;;;;;;4966770;28;20125;-44
2023/10/24 10:31:26;;;;;;;4.57;1.50;;;;;;;;;;4989600;28;20037;-42
2023/10/24 10:33:54;;;;;;;2.90;1.77;;;;;;;;;;4994844;28;20046;-45
2023/10/24 10:36:19;;;;;;;5.57;2.40;;;;;;;;;;4994454;28;20065;-42
2023/10/24 10:38:49;;;;;;;5.85;2.55;;;;;;;;;;4996080;28;20023;-45
2023/10/24 10:41:23;;;;;;;3.70;2.95;;;;;;;;;;4986259;28;20030;-44
2023/10/24 10:43:57;;;;;;;6.43;2.55;;;;;;;;;;4992217;28;20493;-43
2023/10/24 10:46:26;;;;;;;6.57;3.15;;;;;;;;;;4986713;28;20026;-45
2023/10/24 10:48:52;;;;;;;6.97;3.10;;;;;;;;;;4993793;28;20037;-42
2023/10/24 10:51:22;;;;;;;4.45;2.42;;;;;;;;;;4993143;28;20026;-46
2023/10/24 10:53:56;;;;;;;5.47;2.50;;;;;;;;;;5003865;28;20038;-43
2023/10/24 10:56:35;;;;;;;6.60;5.20;;;;;;;;;;4994578;28;20033;-45
2023/10/24 10:59:04;;;;;;;5.22;2.92;;;;;;;;;;4985373;28;20491;-42
2023/10/24 11:01:36;;;;;;;6.57;4.85;;;;;;;;;;4993973;28;20038;-43
2023/10/24 11:04:02;;;;;;;7.20;3.88;;;;;;;;;;4996462;28;20053;-45
2023/10/24 11:06:28;;;;;;;7.35;4.50;;;;;;;;;;4995087;28;20073;-46
2023/10/24 11:09:06;;;;;;;6.63;3.75;;;;;;;;;;4995551;28;20093;-43
2023/10/24 11:11:32;;;;;;;6.50;4.68;;;;;;;;;;4994800;28;20504;-47
2023/10/24 11:14:22;;;;;;;5.60;2.10;;;;;;;;;;4987897;28;20800;-47
2023/10/24 11:16:49;;;;;;;6.70;5.03;;;;;;;;;;4997240;28;20038;-45
2023/10/24 11:19:21;;;;;;;5.93;4.22;;;;;;;;;;5006464;28;20113;-42
2023/10/24 11:21:52;;;;;;;3.80;3.40;;;;;;;;;;4995498;28;20046;-42
2023/10/24 11:24:22;;;;;;;4.95;4.22;;;;;;;;;;4984626;28;20109;-43
2023/10/24 11:26:54;;;;;;;3.28;2.60;;;;;;;;;;4994371;28;20064;-44
2023/10/24 11:29:20;;;;;;;6.35;1.95;;;;;;;;;;4994170;28;20026;-41
2023/10/24 11:31:46;;;;;;;4.28;1.92;;;;;;;;;;4995776;28;20034;-45
2023/10/24 11:34:15;;;;;;;3.45;2.60;;;;;;;;;;4996485;28;20031;-46
2023/10/24 11:36:45;;;;;;;2.10;1.90;;;;;;;;;;5014498;28;20620;-44
2023/10/24 11:39:14;;;;;;;4.85;3.58;;;;;;;;;;4993749;28;20089;-45
2023/10/24 11:41:41;;;;;;;2.63;0.85;;;;;;;;;;4992291;28;20441;-44
2023/10/24 11:44:07;;;;;;;2.28;1.17;;;;;;;;;;4994691;28;20145;-44
2023/10/24 11:46:33;;;;;;;4.75;2.25;;;;;;;;;;4985450;28;20054;-42
2023/10/24 11:48:58;;;;;;;3.58;3.22;;;;;;;;;;4995995;28;20139;-45
2023/10/24 11:51:25;;;;;;;2.13;1.80;;;;;;;;;;4985839;28;20469;-43
2023/10/24 11:54:00;;;;;;;4.30;2.40;;;;;;;;;;4995977;28;20077;-43
2023/10/24 11:56:26;;;;;;;4.53;2.22;;;;;;;;;;5001534;28;20069;-43
2023/10/24 11:58:52;;;;;;;2.47;1.85;;;;;;;;;;4990757;28;20038;-42
2023/10/24 12:01:17;;;;;;;3.17;1.67;;;;;;;;;;4996251;28;20034;-43
2023/10/24 12:03:47;;;;;;;2.30;0.50;;;;;;;;;;4998597;28;20319;-42
2023/10/24 12:06:16;;;;;;;2.08;1.95;;;;;;;;;;4997133;28;20041;-42
2023/10/24 12:08:43;;;;;;;2.33;0.98;;;;;;;;;;4993465;28;20477;-46
2023/10/24 12:11:09;;;;;;;2.00;1.77;;;;;;;;;;4988821;28;20021;-44
2023/10/24 12:13:35;;;;;;;3.15;1.30;;;;;;;;;;4995018;28;20039;-45
2023/10/24 12:16:01;;;;;;;1.08;0.60;;;;;;;;;;4990138;28;20386;-45
2023/10/24 12:18:27;;;;;;;1.58;1.48;;;;;;;;;;5023950;28;20038;-45
2023/10/24 12:20:53;;;;;;;4.05;1.60;;;;;;;;;;4992887;28;20057;-42
2023/10/24 12:23:20;;;;;;;2.92;1.92;;;;;;;;;;4992434;28;20102;-46
2023/10/24 12:25:46;;;;;;;2.88;2.17;;;;;;;;;;4996750;28;20037;-43
2023/10/24 12:28:11;;;;;;;2.90;2.45;;;;;;;;;;4998261;28;20106;-45
2023/10/24 12:30:37;;;;;;;2.60;2.20;;;;;;;;;;4996472;28;20014;-45
2023/10/24 12:33:02;;;;;;;3.97;2.13;;;;;;;;;;4999172;28;20030;-45
2023/10/24 12:35:28;;;;;;;3.35;2.15;;;;;;;;;;4998728;28;20061;-44
2023/10/24 12:37:54;;;;;;;3.13;2.15;;;;;;;;;;4991466;28;20042;-46
2023/10/24 12:40:19;;;;;;;2.42;1.60;;;;;;;;;;5002440;28;20042;-43
2023/10/24 12:42:45;;;;;;;2.42;1.48;;;;;;;;;;4992938;28;20102;-46
2023/10/24 12:45:10;;;;;;;3.42;3.20;;;;;;;;;;4995337;28;20030;-45
2023/10/24 12:47:36;;;;;;;2.92;2.00;;;;;;;;;;4992060;28;20038;-45
2023/10/24 12:50:02;;;;;;;1.80;1.70;;;;;;;;;;4998861;28;20479;-44
2023/10/24 12:52:29;;;;;;;2.08;1.45;;;;;;;;;;4987084;28;20511;-43
2023/10/24 12:54:55;;;;;;;0.40;0.35;;;;;;;;;;4984415;28;20383;-43
2023/10/24 12:57:20;;;;;;;0.60;0.60;;;;;;;;;;4996812;28;20076;-46
2023/10/24 12:59:46;;;;;;;2.05;1.30;;;;;;;;;;4986346;28;20030;-45
2023/10/24 13:02:12;;;;;;;1.67;1.58;;;;;;;;;;4997036;28;20085;-47
2023/10/24 13:04:37;;;;;;;1.38;1.17;;;;;;;;;;4997769;28;20691;-48
2023/10/24 13:07:06;;;;;;;1.90;1.80;;;;;;;;;;4995151;28;20106;-43
2023/10/24 13:09:36;;;;;;;2.00;1.13;;;;;;;;;;4992666;28;20022;-45
2023/10/24 13:12:03;;;;;;;0.90;0.88;;;;;;;;;;5018305;28;20088;-45
2023/10/24 13:14:29;;;;;;;1.30;1.20;;;;;;;;;;4997944;28;20058;-44
2023/10/24 13:16:56;;;;;;;3.45;1.08;;;;;;;;;;5001720;28;20497;-45
2023/10/24 13:19:24;;;;;;;0.68;0.65;;;;;;;;;;4997022;28;20068;-46
2023/10/24 13:21:51;;;;;;;1.58;1.58;;;;;;;;;;4996007;28;20077;-42
2023/10/24 13:24:17;;;;;;;1.25;1.10;;;;;;;;;;4989058;28;20026;-42
2023/10/24 13:26:45;;;;;;;2.08;1.98;;;;;;;;;;4991602;28;20057;-44
2023/10/24 13:29:11;;;;;;;1.80;1.20;;;;;;;;;;4996694;28;20105;-43
2023/10/24 13:31:36;;;;;;;1.65;1.55;;;;;;;;;;4990415;28;20034;-45
2023/10/24 13:34:02;;;;;;;1.73;1.70;;;;;;;;;;4995644;28;20030;-44
2023/10/24 13:36:27;;;;;;;3.40;3.30;;;;;;;;;;4981445;28;20045;-47
2023/10/24 13:38:53;;;;;;;0.98;0.98;;;;;;;;;;4975320;28;20113;-43
2023/10/24 13:41:18;;;;;;;1.08;1.08;;;;;;;;;;4993949;28;20050;-45
2023/10/24 13:43:43;;;;;;;0.77;0.77;;;;;;;;;;4992415;28;20057;-44
2023/10/24 13:46:09;;;;;;;0.70;0.70;;;;;;;;;;4995232;28;20861;-45
2023/10/24 13:48:34;;;;;;;1.48;1.40;;;;;;;;;;4995972;28;20046;-46
2023/10/24 13:51:00;;;;;;;0.30;0.30;;;;;;;;;;4979400;28;20443;-44
2023/10/24 13:53:25;;;;;;;0.80;0.80;;;;;;;;;;4990687;28;20049;-44
2023/10/24 13:55:50;;;;;;;1.23;1.23;;;;;;;;;;4988327;28;20045;-43
2023/10/24 13:58:16;;;;;;;1.20;1.20;;;;;;;;;;4993937;28;20065;-47
2023/10/24 14:00:42;;;;;;;0.60;0.10;;;;;;;;;;4996648;28;20455;-41
2023/10/24 14:03:08;;;;;;;0.93;0.90;;;;;;;;;;4993742;28;20050;-43
2023/10/24 14:05:33;;;;;;;0.75;0.75;;;;;;;;;;4978885;28;20584;-43
2023/10/24 14:07:59;;;;;;;0.47;0.47;;;;;;;;;;4994002;28;20440;-41
2023/10/24 14:10:24;;;;;;;1.75;1.75;;;;;;;;;;4994941;28;20081;-46
2023/10/24 14:12:49;;;;;;;1.75;1.23;;;;;;;;;;4993751;28;20104;-43
2023/10/24 14:15:15;;;;;;;1.52;1.42;;;;;;;;;;4994579;28;20060;-47
2023/10/24 14:17:40;;;;;;;1.55;1.45;;;;;;;;;;5004640;28;20045;-46
2023/10/24 14:20:07;;;;;;;1.33;1.02;;;;;;;;;;5001046;28;20113;-47
2023/10/24 14:22:32;;;;;;;2.08;1.98;;;;;;;;;;4997164;28;20046;-43
2023/10/24 14:24:57;;;;;;;2.25;2.15;;;;;;;;;;4994179;28;20084;-46
2023/10/24 14:27:23;;;;;;;1.65;1.55;;;;;;;;;;4983701;28;20050;-45
2023/10/24 14:29:48;;;;;;;1.40;1.30;;;;;;;;;;4977513;28;20084;-45
2023/10/24 14:32:15;;;;;;;1.88;1.83;;;;;;;;;;4991809;28;20121;-44
2023/10/24 14:34:40;;;;;;;1.17;1.10;;;;;;;;;;4994565;28;20574;-45
2023/10/24 14:37:06;;;;;;;1.48;1.45;;;;;;;;;;5001134;28;20053;-46